createdAt,value
2023-01-28T00:01:58.169Z,2.30
2023-01-28T00:04:25.336Z,2.40
2023-01-28T00:06:53.807Z,2.40
2023-01-28T00:09:20.903Z,2.40
2023-01-28T00:11:48.030Z,2.40
2023-01-28T00:14:15.193Z,2.50
2023-01-28T00:16:42.317Z,2.50
2023-01-28T00:19:09.759Z,2.50
2023-01-28T00:21:36.759Z,2.60
2023-01-28T00:24:03.993Z,2.60
2023-01-28T00:26:31.111Z,2.50
2023-01-28T00:28:58.177Z,2.50
2023-01-28T00:31:27.556Z,2.50
2023-01-28T00:33:55.747Z,2.50
2023-01-28T00:36:24.931Z,2.50
2023-01-28T00:38:54.122Z,2.50
2023-01-28T00:41:23.275Z,2.40
2023-01-28T00:43:51.034Z,2.40
2023-01-28T00:46:18.850Z,2.30
2023-01-28T00:48:46.361Z,2.30
2023-01-28T00:51:17.439Z,2.40
2023-01-28T00:53:44.945Z,2.40
2023-01-28T00:56:15.530Z,2.30
2023-01-28T00:58:43.030Z,2.30
2023-01-28T01:01:15.992Z,2.30
2023-01-28T01:03:43.633Z,2.30
2023-01-28T01:06:12.342Z,2.20
2023-01-28T01:08:43.303Z,2.30
2023-01-28T01:11:12.389Z,2.30
2023-01-28T01:13:39.450Z,2.20
2023-01-28T01:16:13.365Z,2.20
2023-01-28T01:18:43.623Z,2.20
2023-01-28T01:21:17.737Z,2.30
2023-01-28T01:23:45.429Z,2.30
2023-01-28T01:26:13.567Z,2.20
2023-01-28T01:28:40.722Z,2.10
2023-01-28T01:31:16.251Z,2.10
2023-01-28T01:33:44.533Z,2.10
2023-01-28T01:36:13.929Z,2.10
2023-01-28T01:38:42.582Z,2.10
2023-01-28T01:41:14.179Z,2.10
2023-01-28T01:43:58.718Z,2.00
2023-01-28T01:46:39.086Z,2.10
2023-01-28T01:49:26.959Z,2.10
2023-01-28T01:52:10.836Z,2.20
2023-01-28T01:54:39.915Z,2.20
2023-01-28T01:57:10.078Z,2.20
2023-01-28T01:59:38.108Z,2.20
2023-01-28T02:02:07.797Z,2.20
2023-01-28T02:04:42.123Z,2.20
2023-01-28T02:07:11.429Z,2.30
2023-01-28T02:09:38.919Z,2.30
2023-01-28T02:12:21.116Z,2.30
2023-01-28T02:14:56.712Z,2.30
2023-01-28T02:17:24.558Z,2.30
2023-01-28T02:19:55.330Z,2.30
2023-01-28T02:22:43.363Z,2.30
2023-01-28T02:25:28.902Z,2.30
2023-01-28T02:28:24.981Z,2.30
2023-01-28T02:31:02.111Z,2.30
2023-01-28T02:33:51.233Z,2.30
2023-01-28T02:36:59.752Z,2.30
2023-01-28T02:39:51.642Z,2.30
2023-01-28T02:42:29.492Z,2.30
2023-01-28T02:44:56.675Z,2.30
2023-01-28T02:47:42.328Z,2.20
2023-01-28T02:50:13.269Z,2.20
2023-01-28T02:53:10.572Z,2.20
2023-01-28T02:55:44.227Z,2.20
2023-01-28T02:58:29.247Z,2.20
2023-01-28T03:01:20.975Z,2.20
2023-01-28T03:03:57.282Z,2.20
2023-01-28T03:06:39.319Z,2.20
2023-01-28T03:09:24.748Z,2.20
2023-01-28T03:12:13.771Z,2.20
2023-01-28T03:15:01.884Z,2.20
2023-01-28T03:18:10.397Z,2.20
2023-01-28T03:21:23.178Z,2.20
2023-01-28T03:24:30.573Z,2.20
2023-01-28T03:27:42.704Z,2.20
2023-01-28T03:30:35.928Z,2.20
2023-01-28T03:33:23.218Z,2.20
2023-01-28T03:36:08.854Z,2.20
2023-01-28T03:38:42.270Z,2.20
2023-01-28T03:41:11.680Z,2.30
2023-01-28T03:43:38.867Z,2.30
2023-01-28T03:46:06.674Z,2.30
2023-01-28T03:48:33.785Z,2.30
2023-01-28T03:51:00.791Z,2.30
2023-01-28T03:53:28.643Z,2.40
2023-01-28T03:55:59.559Z,2.40
2023-01-28T03:58:46.558Z,2.40
2023-01-28T04:01:13.996Z,2.40
2023-01-28T04:03:41.162Z,2.40
2023-01-28T04:06:10.004Z,2.30
2023-01-28T04:08:37.102Z,2.30
2023-01-28T04:11:15.924Z,2.30
2023-01-28T04:13:43.683Z,2.20
2023-01-28T04:16:11.752Z,2.10
2023-01-28T04:18:38.841Z,2.10
2023-01-28T04:21:06.528Z,2.10
2023-01-28T04:23:33.673Z,2.20
2023-01-28T04:26:00.723Z,2.20
2023-01-28T04:28:27.703Z,2.10
2023-01-28T04:30:54.821Z,2.10
2023-01-28T04:33:22.620Z,2.00
2023-01-28T04:35:49.680Z,2.10
2023-01-28T04:38:16.824Z,2.00
2023-01-28T04:40:43.921Z,2.00
2023-01-28T04:43:11.075Z,2.10
2023-01-28T04:45:38.255Z,2.10
2023-01-28T04:48:05.546Z,2.10
2023-01-28T04:50:32.580Z,2.10
2023-01-28T04:52:59.566Z,2.10
2023-01-28T04:55:27.327Z,2.00
2023-01-28T04:57:54.485Z,2.00
2023-01-28T05:00:21.855Z,2.00
2023-01-28T05:02:49.051Z,2.00
2023-01-28T05:05:16.453Z,2.10
2023-01-28T05:07:43.800Z,2.10
2023-01-28T05:10:11.296Z,2.20
2023-01-28T05:12:38.430Z,2.20
2023-01-28T05:15:06.146Z,2.20
2023-01-28T05:17:33.212Z,2.10
2023-01-28T05:20:00.389Z,2.00
2023-01-28T05:22:27.467Z,2.00
2023-01-28T05:24:54.603Z,2.00
2023-01-28T05:27:21.615Z,2.00
2023-01-28T05:29:48.699Z,2.00
2023-01-28T05:32:15.929Z,2.00
2023-01-28T05:34:43.073Z,2.00
2023-01-28T05:37:10.109Z,2.00
2023-01-28T05:39:37.164Z,2.00
2023-01-28T05:42:04.415Z,2.00
2023-01-28T05:44:31.522Z,2.00
2023-01-28T05:46:58.537Z,1.90
2023-01-28T05:49:26.662Z,2.00
2023-01-28T05:51:53.821Z,2.00
2023-01-28T05:54:20.952Z,1.90
2023-01-28T05:56:48.335Z,1.90
2023-01-28T05:59:15.588Z,1.90
2023-01-28T06:01:42.671Z,1.90
2023-01-28T06:04:09.771Z,1.90
2023-01-28T06:06:36.781Z,1.90
2023-01-28T06:09:03.915Z,1.90
2023-01-28T06:11:30.902Z,1.90
2023-01-28T06:13:57.986Z,2.00
2023-01-28T06:16:25.055Z,2.00
2023-01-28T06:18:52.100Z,2.00
2023-01-28T06:21:19.181Z,2.10
2023-01-28T06:23:46.153Z,2.10
2023-01-28T06:26:13.297Z,2.10
2023-01-28T06:28:40.430Z,2.10
2023-01-28T06:31:07.774Z,2.10
2023-01-28T06:33:34.949Z,2.10
2023-01-28T06:36:06.844Z,2.10
2023-01-28T06:38:34.435Z,2.10
2023-01-28T06:41:01.548Z,2.10
2023-01-28T06:43:30.726Z,2.10
2023-01-28T06:45:58.798Z,2.10
2023-01-28T06:48:26.915Z,2.10
2023-01-28T06:50:54.218Z,2.10
2023-01-28T06:53:22.214Z,2.10
2023-01-28T06:55:49.496Z,2.10
2023-01-28T06:58:16.994Z,2.20
2023-01-28T07:00:44.053Z,2.20
2023-01-28T07:03:11.264Z,2.10
2023-01-28T07:05:39.281Z,2.00
2023-01-28T07:08:06.770Z,2.00
2023-01-28T07:10:34.078Z,2.00
2023-01-28T07:13:01.441Z,2.10
2023-01-28T07:15:28.448Z,2.10
2023-01-28T07:17:55.755Z,2.10
2023-01-28T07:20:22.950Z,2.20
2023-01-28T07:22:50.419Z,2.10
2023-01-28T07:25:17.585Z,2.20
2023-01-28T07:27:52.532Z,2.20
2023-01-28T07:30:21.359Z,2.20
2023-01-28T07:32:52.791Z,2.30
2023-01-28T07:35:19.878Z,2.20
2023-01-28T07:37:54.622Z,2.20
2023-01-28T07:40:22.278Z,2.20
2023-01-28T07:42:51.010Z,2.30
2023-01-28T07:45:18.314Z,2.30
2023-01-28T07:47:45.802Z,2.30
2023-01-28T07:50:13.296Z,2.40
2023-01-28T07:52:44.416Z,2.60
2023-01-28T07:55:15.631Z,2.70
2023-01-28T07:57:49.784Z,2.70
2023-01-28T08:00:17.780Z,2.70
2023-01-28T08:02:50.974Z,2.80
2023-01-28T08:05:20.250Z,2.90
2023-01-28T08:07:50.976Z,2.90
2023-01-28T08:10:19.146Z,2.90
2023-01-28T08:12:57.000Z,2.90
2023-01-28T08:15:24.087Z,2.90
2023-01-28T08:17:51.526Z,3.00
2023-01-28T08:20:18.713Z,3.10
2023-01-28T08:22:45.794Z,2.90
2023-01-28T08:25:12.964Z,2.90
2023-01-28T08:27:40.219Z,3.00
2023-01-28T08:30:09.464Z,3.00
2023-01-28T08:32:38.165Z,3.10
2023-01-28T08:35:05.798Z,3.10
2023-01-28T08:37:32.933Z,3.10
2023-01-28T08:40:00.108Z,3.20
2023-01-28T08:42:27.247Z,3.20
2023-01-28T08:44:54.474Z,3.20
2023-01-28T08:47:21.535Z,3.20
2023-01-28T08:49:48.529Z,3.30
2023-01-28T08:52:15.632Z,3.30
2023-01-28T08:54:42.763Z,3.20
2023-01-28T08:57:09.893Z,3.30
2023-01-28T08:59:40.852Z,3.40
2023-01-28T09:02:19.054Z,3.40
2023-01-28T09:04:53.353Z,3.30
2023-01-28T09:07:20.696Z,3.40
2023-01-28T09:09:47.846Z,3.60
2023-01-28T09:12:14.856Z,3.60
2023-01-28T09:14:41.914Z,3.60
2023-01-28T09:17:09.161Z,3.50
2023-01-28T09:19:36.274Z,3.40
2023-01-28T09:22:06.861Z,3.50
2023-01-28T09:24:34.010Z,3.50
2023-01-28T09:27:01.161Z,3.50
2023-01-28T09:29:28.179Z,3.40
2023-01-28T09:31:55.745Z,3.30
2023-01-28T09:34:22.959Z,3.40
2023-01-28T09:36:50.089Z,3.40
2023-01-28T09:39:17.168Z,3.30
2023-01-28T09:41:44.188Z,3.30
2023-01-28T09:44:22.946Z,3.30
2023-01-28T09:46:50.524Z,3.40
2023-01-28T09:49:20.599Z,3.40
2023-01-28T09:51:53.985Z,3.30
2023-01-28T09:54:26.181Z,3.30
2023-01-28T09:57:05.481Z,3.40
2023-01-28T09:59:36.443Z,3.50
2023-01-28T10:02:15.650Z,3.70
2023-01-28T10:05:08.617Z,3.80
2023-01-28T10:07:43.509Z,3.90
2023-01-28T10:10:22.427Z,4.00
2023-01-28T10:13:03.065Z,4.00
2023-01-28T10:15:42.153Z,3.90
2023-01-28T10:18:18.003Z,3.90
2023-01-28T10:20:51.451Z,4.00
2023-01-28T10:23:55.899Z,4.00
2023-01-28T10:26:35.863Z,4.00
2023-01-28T10:29:18.517Z,4.10
2023-01-28T10:31:59.879Z,4.10
2023-01-28T10:34:27.153Z,4.30
2023-01-28T10:36:54.483Z,4.40
2023-01-28T10:39:25.070Z,4.40
2023-01-28T10:41:58.153Z,4.40
2023-01-28T10:44:42.884Z,4.50
2023-01-28T10:47:23.775Z,4.40
2023-01-28T10:49:55.396Z,4.50
2023-01-28T10:52:22.575Z,4.50
2023-01-28T10:55:03.544Z,4.20
2023-01-28T10:57:33.335Z,4.10
2023-01-28T11:00:23.590Z,4.10
2023-01-28T11:02:51.066Z,4.10
2023-01-28T11:05:21.173Z,4.10
2023-01-28T11:07:51.944Z,4.10
2023-01-28T11:10:38.093Z,4.10
2023-01-28T11:13:06.861Z,4.10
2023-01-28T11:15:34.264Z,4.10
2023-01-28T11:18:06.501Z,4.00
2023-01-28T11:20:41.385Z,4.00
2023-01-28T11:23:19.837Z,3.90
2023-01-28T11:25:47.207Z,3.90
2023-01-28T11:28:21.539Z,3.90
2023-01-28T11:30:54.333Z,3.90
2023-01-28T11:33:34.082Z,3.90
2023-01-28T11:36:08.927Z,3.80
2023-01-28T11:38:36.155Z,3.80
2023-01-28T11:41:03.293Z,3.80
2023-01-28T11:43:31.756Z,3.90
2023-01-28T11:46:20.197Z,4.00
2023-01-28T11:48:53.230Z,4.10
2023-01-28T11:51:38.790Z,4.10
2023-01-28T11:54:32.053Z,3.90
2023-01-28T11:57:15.536Z,3.80
2023-01-28T11:59:54.521Z,3.40
2023-01-28T12:02:36.428Z,3.50
2023-01-28T12:05:10.122Z,3.50
2023-01-28T12:07:45.233Z,3.60
2023-01-28T12:10:56.720Z,3.50
2023-01-28T12:13:33.061Z,3.50
2023-01-28T12:16:23.052Z,3.60
2023-01-28T12:19:27.066Z,3.60
2023-01-28T12:22:26.101Z,3.50
2023-01-28T12:25:07.284Z,3.40
2023-01-28T12:27:49.342Z,3.30
2023-01-28T12:30:54.758Z,3.40
2023-01-28T12:33:49.103Z,3.50
2023-01-28T12:36:27.845Z,3.50
2023-01-28T12:39:13.589Z,3.50
2023-01-28T12:41:47.645Z,3.60
2023-01-28T12:44:28.293Z,3.50
2023-01-28T12:47:03.977Z,3.30
2023-01-28T12:49:31.367Z,3.20
2023-01-28T12:52:07.506Z,3.10
2023-01-28T12:54:57.246Z,3.20
2023-01-28T12:57:30.903Z,3.20
2023-01-28T13:00:13.139Z,3.20
2023-01-28T13:02:45.103Z,3.20
2023-01-28T13:05:19.028Z,3.30
2023-01-28T13:07:45.946Z,3.30
2023-01-28T13:10:28.132Z,3.20
2023-01-28T13:12:57.124Z,3.30
2023-01-28T13:15:25.349Z,3.30
2023-01-28T13:18:04.771Z,3.20
2023-01-28T13:20:53.568Z,3.10
2023-01-28T13:23:37.849Z,3.00
2023-01-28T13:26:20.023Z,2.80
2023-01-28T13:28:48.775Z,2.70
2023-01-28T13:31:21.368Z,2.80
2023-01-28T13:33:55.905Z,2.90
2023-01-28T13:36:28.590Z,3.00
2023-01-28T13:39:06.445Z,3.10
2023-01-28T13:41:45.874Z,3.10
2023-01-28T13:44:33.851Z,3.10
2023-01-28T13:47:32.934Z,2.90
2023-01-28T13:50:07.651Z,2.90
2023-01-28T13:52:45.789Z,2.80
2023-01-28T13:55:13.021Z,2.70
2023-01-28T13:57:45.952Z,2.60
2023-01-28T14:00:31.360Z,2.50
2023-01-28T14:03:23.142Z,2.40
2023-01-28T14:06:08.864Z,2.30
2023-01-28T14:08:53.843Z,2.30
2023-01-28T14:11:54.539Z,2.40
2023-01-28T14:14:58.887Z,2.50
2023-01-28T14:17:46.834Z,2.70
2023-01-28T14:20:32.030Z,2.70
2023-01-28T14:23:04.832Z,2.80
2023-01-28T14:25:44.026Z,2.80
2023-01-28T14:28:18.395Z,2.80
2023-01-28T14:31:06.039Z,2.80
2023-01-28T14:33:33.677Z,2.80
2023-01-28T14:36:00.747Z,2.90
2023-01-28T14:38:28.798Z,2.90
2023-01-28T14:40:56.206Z,3.00
2023-01-28T14:43:26.738Z,3.00
2023-01-28T14:45:56.681Z,3.00
2023-01-28T14:48:39.000Z,3.00
2023-01-28T14:51:08.908Z,3.20
2023-01-28T14:53:54.532Z,3.30
2023-01-28T14:56:21.604Z,3.30
2023-01-28T14:58:58.573Z,3.20
2023-01-28T15:01:31.067Z,3.10
2023-01-28T15:03:58.265Z,3.00
2023-01-28T15:06:31.422Z,3.10
2023-01-28T15:09:08.421Z,3.10
2023-01-28T15:11:39.775Z,3.20
2023-01-28T15:14:25.604Z,3.20
2023-01-28T15:16:53.241Z,3.20
2023-01-28T15:19:29.344Z,3.20
2023-01-28T15:21:59.681Z,3.20
2023-01-28T15:24:27.137Z,3.20
2023-01-28T15:26:54.378Z,3.20
2023-01-28T15:29:32.098Z,3.10
2023-01-28T15:32:00.013Z,3.10
2023-01-28T15:34:30.368Z,3.00
2023-01-28T15:36:58.952Z,3.00
2023-01-28T15:39:28.746Z,2.90
2023-01-28T15:42:05.727Z,2.90
2023-01-28T15:44:37.465Z,2.90
2023-01-28T15:47:27.227Z,2.90
2023-01-28T15:49:57.202Z,3.00
2023-01-28T15:52:35.896Z,3.00
2023-01-28T15:55:04.471Z,3.10
2023-01-28T15:57:33.686Z,2.90
2023-01-28T16:00:20.563Z,2.80
2023-01-28T16:02:50.207Z,2.80
2023-01-28T16:05:32.328Z,2.90
2023-01-28T16:08:03.099Z,2.80
2023-01-28T16:10:31.177Z,2.80
2023-01-28T16:13:19.911Z,2.70
2023-01-28T16:15:49.041Z,2.70
2023-01-28T16:18:40.650Z,2.70
2023-01-28T16:21:12.112Z,2.70
2023-01-28T16:23:40.125Z,2.70
2023-01-28T16:26:24.376Z,2.70
2023-01-28T16:28:52.025Z,2.70
2023-01-28T16:31:20.125Z,2.70
2023-01-28T16:33:47.812Z,2.70
2023-01-28T16:36:17.231Z,2.70
2023-01-28T16:38:44.513Z,2.70
2023-01-28T16:41:33.289Z,2.70
2023-01-28T16:44:05.987Z,2.70
2023-01-28T16:46:33.787Z,2.70
2023-01-28T16:49:02.203Z,2.60
2023-01-28T16:51:29.760Z,2.60
2023-01-28T16:53:58.291Z,2.60
2023-01-28T16:56:45.970Z,2.60
2023-01-28T16:59:15.992Z,2.60
2023-01-28T17:01:47.106Z,2.60
2023-01-28T17:04:15.191Z,2.60
2023-01-28T17:06:44.585Z,2.60
2023-01-28T17:09:13.366Z,2.60
2023-01-28T17:11:41.058Z,2.60
2023-01-28T17:14:09.078Z,2.70
2023-01-28T17:16:36.427Z,2.60
2023-01-28T17:19:04.074Z,2.60
2023-01-28T17:21:31.147Z,2.60
2023-01-28T17:23:59.291Z,2.60
2023-01-28T17:26:26.716Z,2.60
2023-01-28T17:28:54.140Z,2.60
2023-01-28T17:31:23.135Z,2.60
2023-01-28T17:33:54.931Z,2.60
2023-01-28T17:36:22.556Z,2.70
2023-01-28T17:38:49.738Z,2.70
2023-01-28T17:41:19.945Z,2.60
2023-01-28T17:43:55.005Z,2.60
2023-01-28T17:46:24.013Z,2.60
2023-01-28T17:48:51.142Z,2.60
2023-01-28T17:51:19.166Z,2.60
2023-01-28T17:53:50.856Z,2.60
2023-01-28T17:56:18.948Z,2.60
2023-01-28T17:58:50.929Z,2.60
2023-01-28T18:01:18.102Z,2.60
2023-01-28T18:03:45.364Z,2.60
2023-01-28T18:06:12.620Z,2.60
2023-01-28T18:08:39.924Z,2.60
2023-01-28T18:11:09.211Z,2.60
2023-01-28T18:13:37.863Z,2.60
2023-01-28T18:16:07.279Z,2.60
2023-01-28T18:18:35.120Z,2.60
2023-01-28T18:21:07.586Z,2.60
2023-01-28T18:23:35.283Z,2.60
2023-01-28T18:26:04.560Z,2.70
2023-01-28T18:28:31.819Z,2.80
2023-01-28T18:31:08.077Z,2.80
2023-01-28T18:33:35.372Z,2.70
2023-01-28T18:36:04.688Z,2.70
2023-01-28T18:38:31.820Z,2.80
2023-01-28T18:40:58.949Z,2.80
2023-01-28T18:43:26.592Z,2.90
2023-01-28T18:45:53.938Z,3.00
2023-01-28T18:48:21.307Z,3.00
2023-01-28T18:50:55.398Z,3.10
2023-01-28T18:53:23.172Z,3.20
2023-01-28T18:55:50.320Z,3.20
2023-01-28T18:58:18.008Z,3.20
2023-01-28T19:00:45.212Z,3.30
2023-01-28T19:03:12.382Z,3.20
2023-01-28T19:05:40.914Z,3.20
2023-01-28T19:08:09.699Z,3.20
2023-01-28T19:10:36.838Z,3.10
2023-01-28T19:13:03.962Z,3.10
2023-01-28T19:15:31.375Z,3.00
2023-01-28T19:17:59.260Z,3.00
2023-01-28T19:20:26.522Z,3.10
2023-01-28T19:22:53.624Z,3.20
2023-01-28T19:25:20.733Z,3.20
2023-01-28T19:27:47.880Z,3.20
2023-01-28T19:30:15.134Z,3.20
2023-01-28T19:32:42.220Z,3.10
2023-01-28T19:35:09.657Z,3.10
2023-01-28T19:37:36.800Z,3.10
2023-01-28T19:40:04.430Z,3.10
2023-01-28T19:42:31.511Z,3.10
2023-01-28T19:44:58.552Z,3.10
2023-01-28T19:47:26.177Z,3.10
2023-01-28T19:49:53.467Z,3.10
2023-01-28T19:52:21.469Z,3.10
2023-01-28T19:54:48.815Z,3.10
2023-01-28T19:57:15.949Z,3.10
2023-01-28T19:59:43.032Z,3.20
2023-01-28T20:02:10.760Z,3.20
2023-01-28T20:04:40.986Z,3.10
2023-01-28T20:07:12.024Z,3.30
2023-01-28T20:09:39.271Z,3.80
2023-01-28T20:12:06.594Z,3.60
2023-01-28T20:14:33.663Z,3.50
2023-01-28T20:17:00.686Z,3.40
2023-01-28T20:19:27.803Z,3.40
2023-01-28T20:21:54.981Z,3.30
2023-01-28T20:24:22.144Z,3.20
2023-01-28T20:26:49.361Z,3.20
2023-01-28T20:29:18.652Z,3.10
2023-01-28T20:31:54.714Z,3.20
2023-01-28T20:34:28.128Z,3.10
2023-01-28T20:36:55.286Z,3.00
2023-01-28T20:39:22.301Z,2.90
2023-01-28T20:41:50.094Z,2.90
2023-01-28T20:44:17.167Z,2.90
2023-01-28T20:46:44.180Z,3.00
2023-01-28T20:49:11.463Z,3.00
2023-01-28T20:51:39.300Z,3.10
2023-01-28T20:54:06.556Z,3.10
2023-01-28T20:56:33.943Z,3.10
2023-01-28T20:59:03.907Z,3.10
2023-01-28T21:01:34.221Z,3.20
2023-01-28T21:04:01.751Z,3.10
2023-01-28T21:06:29.216Z,3.10
2023-01-28T21:08:57.882Z,3.10
2023-01-28T21:11:26.781Z,3.10
2023-01-28T21:13:54.491Z,3.10
2023-01-28T21:16:22.101Z,3.00
2023-01-28T21:18:50.413Z,3.00
2023-01-28T21:21:23.466Z,3.00
2023-01-28T21:23:50.849Z,3.00
2023-01-28T21:26:18.247Z,3.00
2023-01-28T21:28:45.446Z,3.00
2023-01-28T21:31:22.686Z,3.00
2023-01-28T21:33:55.455Z,3.00
2023-01-28T21:36:24.338Z,3.10
2023-01-28T21:38:57.043Z,3.00
2023-01-28T21:41:24.320Z,3.10
2023-01-28T21:43:53.820Z,3.10
2023-01-28T21:46:26.250Z,3.20
2023-01-28T21:48:58.294Z,3.20
2023-01-28T21:51:46.460Z,3.20
2023-01-28T21:54:19.262Z,3.10
2023-01-28T21:56:51.729Z,3.20
2023-01-28T21:59:29.681Z,3.20
2023-01-28T22:02:17.154Z,3.20
2023-01-28T22:04:46.467Z,3.20
2023-01-28T22:07:17.407Z,3.20
2023-01-28T22:09:45.651Z,3.30
2023-01-28T22:12:15.889Z,3.20
2023-01-28T22:14:44.345Z,3.10
2023-01-28T22:17:12.142Z,3.10
2023-01-28T22:19:39.672Z,3.10
2023-01-28T22:22:07.416Z,3.10
2023-01-28T22:24:34.497Z,3.10
2023-01-28T22:27:01.657Z,3.10
2023-01-28T22:29:28.711Z,3.00
2023-01-28T22:31:55.884Z,3.00
2023-01-28T22:34:23.711Z,3.10
2023-01-28T22:36:52.224Z,3.00
2023-01-28T22:39:19.650Z,3.00
2023-01-28T22:41:47.649Z,3.00
2023-01-28T22:44:15.206Z,3.00
2023-01-28T22:46:42.439Z,3.00
2023-01-28T22:49:12.083Z,3.00
2023-01-28T22:51:39.362Z,2.90
2023-01-28T22:54:06.673Z,2.90
2023-01-28T22:56:33.832Z,3.00
2023-01-28T22:59:03.660Z,3.00
2023-01-28T23:01:31.198Z,3.00
2023-01-28T23:03:58.579Z,3.00
2023-01-28T23:06:27.258Z,3.10
2023-01-28T23:08:54.613Z,3.10
2023-01-28T23:11:28.602Z,3.20
2023-01-28T23:14:19.821Z,3.10
2023-01-28T23:17:06.054Z,3.20
2023-01-28T23:19:52.587Z,3.00
2023-01-28T23:22:43.585Z,3.10
2023-01-28T23:25:11.067Z,3.00
2023-01-28T23:27:38.568Z,3.00
2023-01-28T23:30:10.217Z,3.00
2023-01-28T23:32:40.317Z,3.00
2023-01-28T23:35:11.652Z,3.00
2023-01-28T23:37:39.006Z,3.00
2023-01-28T23:40:07.115Z,2.90
2023-01-28T23:42:34.129Z,2.90
2023-01-28T23:45:01.395Z,2.90
2023-01-28T23:47:28.472Z,2.90
2023-01-28T23:49:55.563Z,3.00
2023-01-28T23:52:23.571Z,3.10
2023-01-28T23:54:50.542Z,3.10
2023-01-28T23:57:17.629Z,3.10
2023-01-28T23:59:44.656Z,3.10
